Time;durP1;ratioP1;P1;durP2;ratioP2;P2;SDS_P1;SDS_P2;PMS_P1;PMS_P2;Temp;Humidity;BMP_temperature;BMP_pressure;BME280_temperature;BME280_humidity;BME280_pressure;Samples;Min_cycle;Max_cycle;Signal;HPM_P1;HPM_P2
2022/04/19 00:04:21;;;;;;;;;;;;;;;17.67;30.23;95325.94;10371812;28;1791;-57
2022/04/19 00:09:21;;;;;;;;;;;;;;;17.66;30.18;95311.25;10367929;28;1524;-55
2022/04/19 00:14:22;;;;;;;;;;;;;;;17.66;30.08;95305.25;10370593;28;1906;-56
2022/04/19 00:19:25;;;;;;;;;;;;;;;17.65;30.11;95301.03;10373116;28;1544;-59
2022/04/19 00:24:26;;;;;;;;;;;;;;;17.65;30.19;95291.34;10359939;28;1534;-57
2022/04/19 00:29:26;;;;;;;;;;;;;;;17.64;30.04;95289.78;10347440;28;1759;-56
2022/04/19 00:34:26;;;;;;;;;;;;;;;17.65;30.01;95282.69;10338640;28;2467;-57
2022/04/19 00:39:27;;;;;;;;;;;;;;;17.65;30.14;95269.59;10353917;28;1904;-59
2022/04/19 00:44:27;;;;;;;;;;;;;;;17.65;30.13;95264.34;10355996;28;1845;-58
2022/04/19 00:49:28;;;;;;;;;;;;;;;17.64;30.12;95260.19;10354411;28;1918;-55
2022/04/19 00:54:29;;;;;;;;;;;;;;;17.64;30.11;95257.56;10370603;28;1973;-58
2022/04/19 00:59:29;;;;;;;;;;;;;;;17.63;30.13;95248.09;10353954;28;1874;-58
2022/04/19 01:04:30;;;;;;;;;;;;;;;17.63;29.96;95243.66;10355337;28;1634;-56
2022/04/19 01:09:30;;;;;;;;;;;;;;;17.63;30.05;95240.25;10377088;28;1940;-58
2022/04/19 01:14:38;;;;;;;;;;;;;;;17.61;30.07;95231.88;10341993;28;1908;-57
2022/04/19 01:19:39;;;;;;;;;;;;;;;17.61;30.00;95226.63;10357379;28;1853;-58
2022/04/19 01:24:42;;;;;;;;;;;;;;;17.60;30.07;95225.84;10364002;28;1858;-59
2022/04/19 01:29:42;;;;;;;;;;;;;;;17.60;29.98;95220.59;10373935;28;1806;-58
2022/04/19 01:34:43;;;;;;;;;;;;;;;17.59;30.00;95221.66;10370732;28;1969;-58
2022/04/19 01:45:03;;;;;;;;;;;;;;;17.59;30.04;95213.78;10373671;28;1870;-58
2022/04/19 01:50:03;;;;;;;;;;;;;;;17.58;29.93;95203.56;10388941;22;1978;-52
2022/04/19 01:55:04;;;;;;;;;;;;;;;17.60;29.99;95204.06;10406087;28;1920;-47
2022/04/19 02:00:06;;;;;;;;;;;;;;;17.59;29.97;95205.13;10381038;28;1980;-49
2022/04/19 02:05:06;;;;;;;;;;;;;;;17.57;30.14;95194.94;10345348;28;1937;-48
2022/04/19 02:10:07;;;;;;;;;;;;;;;17.57;30.05;95197.56;10363733;28;2135;-49
2022/04/19 02:15:08;;;;;;;;;;;;;;;17.57;30.00;95196.75;10349378;28;2004;-51
2022/04/19 02:20:08;;;;;;;;;;;;;;;17.56;29.84;95203.84;10350778;28;1764;-47
2022/04/19 02:25:11;;;;;;;;;;;;;;;17.56;30.02;95190.72;10364725;28;1538;-54
2022/04/19 02:30:15;;;;;;;;;;;;;;;17.56;30.01;95193.34;10342911;28;1844;-52
2022/04/19 02:35:17;;;;;;;;;;;;;;;17.54;29.92;95192.84;10359799;28;1976;-54
2022/04/19 02:40:18;;;;;;;;;;;;;;;17.55;29.78;95188.38;10347824;28;1728;-49
2022/04/19 02:45:20;;;;;;;;;;;;;;;17.54;30.03;95190.22;10348008;28;1445;-47
2022/04/19 02:50:20;;;;;;;;;;;;;;;17.54;29.87;95187.59;10345469;28;2423;-48
2022/04/19 02:55:20;;;;;;;;;;;;;;;17.54;29.94;95177.13;10363022;28;1918;-50
2022/04/19 03:00:21;;;;;;;;;;;;;;;17.54;30.03;95178.94;10360650;28;1472;-49
2022/04/19 03:05:21;;;;;;;;;;;;;;;17.54;29.86;95177.13;10345267;28;1580;-51
2022/04/19 03:10:22;;;;;;;;;;;;;;;17.53;29.86;95175.56;10341802;28;1493;-48
2022/04/19 03:15:22;;;;;;;;;;;;;;;17.54;29.81;95165.84;10362517;28;1977;-50
2022/04/19 03:20:23;;;;;;;;;;;;;;;17.52;29.85;95163.50;10359546;28;1580;-48
2022/04/19 03:30:43;;;;;;;;;;;;;;;17.51;29.85;95167.19;10340773;28;1537;-48
2022/04/19 03:35:43;;;;;;;;;;;;;;;17.51;30.04;95167.19;10360031;28;1969;-47
2022/04/19 03:40:44;;;;;;;;;;;;;;;17.51;29.92;95164.56;10358525;28;1416;-47
2022/04/19 03:45:45;;;;;;;;;;;;;;;17.50;29.74;95164.81;10345092;28;1481;-52
2022/04/19 03:50:46;;;;;;;;;;;;;;;17.48;29.76;95162.44;10359073;28;1396;-55
2022/04/19 03:55:46;;;;;;;;;;;;;;;17.49;29.81;95168.47;10334066;28;2105;-53
2022/04/19 04:00:48;;;;;;;;;;;;;;;17.50;29.74;95170.84;10356876;28;1422;-53
2022/04/19 04:05:49;;;;;;;;;;;;;;;17.50;29.87;95168.22;10359974;28;1546;-48
2022/04/19 04:10:51;;;;;;;;;;;;;;;17.49;29.88;95164.03;10350280;28;1594;-51
2022/04/19 04:15:52;;;;;;;;;;;;;;;17.48;29.81;95162.44;10359842;28;1960;-49
2022/04/19 04:20:53;;;;;;;;;;;;;;;17.48;29.84;95167.66;10366750;28;1515;-49
2022/04/19 04:25:53;;;;;;;;;;;;;;;17.48;29.83;95164.25;10366788;28;1564;-49
2022/04/19 04:30:53;;;;;;;;;;;;;;;17.48;29.88;95178.16;10347638;28;1417;-47
2022/04/19 04:35:54;;;;;;;;;;;;;;;17.46;29.89;95172.41;10366803;28;1922;-48
2022/04/19 04:40:55;;;;;;;;;;;;;;;17.46;29.88;95177.63;10364324;28;1472;-53
2022/04/19 04:51:15;;;;;;;;;;;;;;;17.46;29.66;95167.16;10365771;28;1483;-51
2022/04/19 04:56:15;;;;;;;;;;;;;;;17.46;29.75;95167.16;10354360;28;1965;-50
2022/04/19 05:01:16;;;;;;;;;;;;;;;17.45;29.79;95159.56;10347682;28;1485;-52
2022/04/19 05:06:16;;;;;;;;;;;;;;;17.45;29.84;95157.75;10348891;28;2057;-51
2022/04/19 05:11:16;;;;;;;;;;;;;;;17.46;29.78;95158.50;10332977;28;1527;-50
2022/04/19 05:16:17;;;;;;;;;;;;;;;17.44;29.82;95156.16;10366667;28;1906;-52
2022/04/19 05:21:18;;;;;;;;;;;;;;;17.45;29.86;95168.22;10351559;28;1493;-51
2022/04/19 05:26:19;;;;;;;;;;;;;;;17.46;29.85;95169.78;10364530;28;1626;-50
2022/04/19 05:31:25;;;;;;;;;;;;;;;17.45;29.84;95160.38;10359165;28;1651;-52
2022/04/19 05:36:25;;;;;;;;;;;;;;;17.43;29.84;95170.31;10335741;28;1929;-55
2022/04/19 05:41:27;;;;;;;;;;;;;;;17.43;29.92;95166.91;10349950;28;1580;-50
2022/04/19 05:46:28;;;;;;;;;;;;;;;17.44;29.90;95173.72;10362369;28;1899;-54
2022/04/19 05:51:29;;;;;;;;;;;;;;;17.44;29.81;95171.88;10350252;28;1444;-52
2022/04/19 05:56:30;;;;;;;;;;;;;;;17.45;29.85;95170.06;10350986;28;1902;-51
2022/04/19 06:06:54;;;;;;;;;;;;;;;17.44;29.83;95179.75;10350430;28;1499;-50
2022/04/19 06:11:55;;;;;;;;;;;;;;;17.43;29.96;95172.94;10363918;28;1910;-52
2022/04/19 06:16:55;;;;;;;;;;;;;;;17.44;29.91;95174.50;10335187;28;1514;-51
2022/04/19 06:21:59;;;;;;;;;;;;;;;17.44;29.84;95165.84;10361607;28;1514;-50
2022/04/19 06:27:00;;;;;;;;;;;;;;;17.46;29.82;95166.38;10360794;28;1456;-55
2022/04/19 06:32:01;;;;;;;;;;;;;;;17.43;30.07;95170.31;10358603;28;1928;-50
2022/04/19 06:37:01;;;;;;;;;;;;;;;17.44;29.96;95168.47;10363631;28;1491;-55
2022/04/19 06:42:02;;;;;;;;;;;;;;;17.43;30.04;95165.09;10346083;28;1936;-50
2022/04/19 06:47:02;;;;;;;;;;;;;;;17.45;29.91;95162.19;10369038;28;1433;-51
2022/04/19 06:52:06;;;;;;;;;;;;;;;17.43;29.84;95175.56;10358382;28;1985;-50
2022/04/19 06:57:06;;;;;;;;;;;;;;;17.43;30.03;95174.78;10345750;28;1456;-55
2022/04/19 07:02:07;;;;;;;;;;;;;;;17.44;30.00;95174.50;10358750;28;1452;-53
2022/04/19 07:07:07;;;;;;;;;;;;;;;17.43;30.11;95177.41;10346876;28;1322;-52
2022/04/19 07:12:09;;;;;;;;;;;;;;;17.42;29.96;95179.22;10346464;28;1915;-49
2022/04/19 07:17:09;;;;;;;;;;;;;;;17.42;29.99;95184.47;10350338;28;1459;-52
2022/04/19 07:27:32;;;;;;;;;;;;;;;17.43;30.09;95177.41;10344514;28;2014;-54
2022/04/19 07:32:33;;;;;;;;;;;;;;;17.42;29.93;95173.97;10357473;28;1989;-54
2022/04/19 07:37:34;;;;;;;;;;;;;;;17.42;30.07;95166.13;10348041;28;1576;-52
2022/04/19 07:42:34;;;;;;;;;;;;;;;17.42;30.01;95166.13;10338680;28;1658;-52
2022/04/19 07:47:35;;;;;;;;;;;;;;;17.42;30.16;95167.94;10353264;28;1416;-53
2022/04/19 07:52:35;;;;;;;;;;;;;;;17.42;30.11;95162.72;10400143;22;3455;-57
2022/04/19 07:57:36;;;;;;;;;;;;;;;17.42;30.02;95158.25;10409734;28;1327;-56
2022/04/19 08:02:37;;;;;;;;;;;;;;;17.42;30.14;95152.22;10406860;28;1495;-55
2022/04/19 08:07:39;;;;;;;;;;;;;;;17.42;30.17;95157.47;10406140;28;1515;-57
2022/04/19 08:12:39;;;;;;;;;;;;;;;17.42;29.99;95153.03;10408482;28;1918;-57
2022/04/19 08:17:40;;;;;;;;;;;;;;;17.42;30.13;95154.84;10407114;28;1520;-56
2022/04/19 08:22:44;;;;;;;;;;;;;;;17.42;30.28;95145.16;10407656;28;1904;-57
2022/04/19 08:27:46;;;;;;;;;;;;;;;17.41;30.41;95146.22;10408266;28;1664;-57
2022/04/19 08:32:46;;;;;;;;;;;;;;;17.41;30.39;95146.22;10407348;28;1968;-56
2022/04/19 08:37:47;;;;;;;;;;;;;;;17.43;30.46;95144.13;10408969;28;1516;-58
2022/04/19 08:42:48;;;;;;;;;;;;;;;17.42;30.37;95139.13;10403654;28;2081;-57
2022/04/19 08:47:49;;;;;;;;;;;;;;;17.41;30.35;95133.13;10404886;28;1457;-58
2022/04/19 08:57:29;;;;;;;;;;;;;;;17.43;30.46;95136.25;10404644;28;1970;-58
2022/04/19 08:58:10;;;;;;;;;;;;;;;17.43;30.49;95140.72;10407245;28;1664;-56
2022/04/19 09:03:11;;;;;;;;;;;;;;;17.42;30.56;95142.53;10406579;28;1331;-58
2022/04/19 09:08:12;;;;;;;;;;;;;;;17.43;30.46;95143.34;10391432;28;1591;-56
2022/04/19 09:13:20;;;;;;;;;;;;;;;17.42;30.52;95134.69;10410693;28;1976;-55
2022/04/19 09:18:20;;;;;;;;;;;;;;;17.44;30.45;95139.66;10392312;28;1632;-58
2022/04/19 09:23:21;;;;;;;;;;;;;;;17.42;30.73;95137.31;10405942;28;1468;-56
2022/04/19 09:28:21;;;;;;;;;;;;;;;17.43;30.64;95138.88;10407722;28;1488;-58
2022/04/19 09:33:26;;;;;;;;;;;;;;;17.43;30.52;95130.22;10405444;28;1910;-57
2022/04/19 09:38:40;;;;;;;;;;;;;;;17.44;30.66;95135.19;10403187;28;1942;-54
2022/04/19 09:43:40;;;;;;;;;;;;;;;17.43;30.68;95125.78;10404900;28;1793;-53
2022/04/19 09:48:41;;;;;;;;;;;;;;;17.44;30.66;95124.72;10403967;28;1551;-56
2022/04/19 09:53:41;;;;;;;;;;;;;;;17.43;30.67;95133.66;10404100;28;1974;-56
2022/04/19 09:58:44;;;;;;;;;;;;;;;17.44;30.78;95129.16;10403821;28;1463;-56
2022/04/19 10:09:04;;;;;;;;;;;;;;;17.43;30.70;95117.94;10403805;28;1472;-58
2022/04/19 10:14:04;;;;;;;;;;;;;;;17.44;30.75;95119.47;10402645;28;1969;-57
2022/04/19 10:19:08;;;;;;;;;;;;;;;17.44;30.78;95116.06;10402717;28;1551;-56
2022/04/19 10:24:09;;;;;;;;;;;;;;;17.45;30.68;95110.59;10403820;28;1457;-58
2022/04/19 10:29:22;;;;;;;;;;;;;;;17.45;30.79;95115.81;10404175;28;1487;-56
2022/04/19 10:34:23;;;;;;;;;;;;;;;17.45;30.77;95097.47;10403683;28;1985;-55
2022/04/19 10:39:24;;;;;;;;;;;;;;;17.46;30.84;95093.00;10402171;28;1591;-60
2022/04/19 10:44:40;;;;;;;;;;;;;;;17.46;30.93;95085.94;10404597;28;1520;-59
2022/04/19 10:50:01;;;;;;;;;;;;;;;17.48;30.77;95077.78;10402737;28;1428;-58
2022/04/19 10:55:02;;;;;;;;;;;;;;;17.47;30.76;95077.03;10401530;28;1898;-58
2022/04/19 11:00:21;;;;;;;;;;;;;;;17.48;30.70;95062.06;10403016;28;1401;-57
2022/04/19 11:05:43;;;;;;;;;;;;;;;17.48;30.78;95065.47;10402578;28;1432;-57
2022/04/19 11:10:44;;;;;;;;;;;;;;;17.48;30.69;95060.25;10399052;28;1531;-58
2022/04/19 11:15:46;;;;;;;;;;;;;;;17.48;30.84;95068.09;10401216;28;1902;-56
2022/04/19 11:20:46;;;;;;;;;;;;;;;17.50;30.82;95050.31;10384428;28;1435;-57
2022/04/19 11:25:47;;;;;;;;;;;;;;;17.51;30.72;95049.28;10401157;28;1701;-59
2022/04/19 11:30:57;;;;;;;;;;;;;;;17.53;30.74;95036.69;10397951;28;1634;-57
2022/04/19 11:35:59;;;;;;;;;;;;;;;17.54;30.85;95029.56;10400517;28;2032;-59
2022/04/19 11:51:41;;;;;;;;;;;;;;;17.57;30.80;95021.19;10398290;28;1487;-58
2022/04/19 11:56:41;;;;;;;;;;;;;;;17.58;30.75;95018.28;10401994;28;1959;-55
2022/04/19 12:01:47;;;;;;;;;;;;;;;17.57;30.82;95015.94;10400812;28;1451;-54
2022/04/19 12:06:52;;;;;;;;;;;;;;;17.58;30.74;95014.88;10399388;28;1536;-56
2022/04/19 12:11:52;;;;;;;;;;;;;;;17.58;30.76;95007.81;10397778;28;1917;-57
2022/04/19 12:17:00;;;;;;;;;;;;;;;17.58;30.90;95004.41;10400346;28;1468;-58
2022/04/19 12:22:01;;;;;;;;;;;;;;;17.59;31.02;95000.72;10401169;28;1404;-58
2022/04/19 12:27:07;;;;;;;;;;;;;;;17.58;30.76;94989.47;10399775;28;1532;-57
2022/04/19 12:32:08;;;;;;;;;;;;;;;17.59;30.86;94985.81;10404599;28;1909;-57
2022/04/19 12:37:10;;;;;;;;;;;;;;;17.59;30.81;94985.00;10406934;28;1445;-57
2022/04/19 12:42:11;;;;;;;;;;;;;;;17.59;30.88;94979.78;10409311;28;1460;-55
2022/04/19 12:47:14;;;;;;;;;;;;;;;17.60;30.90;94976.06;10407115;28;1408;-56
2022/04/19 12:52:15;;;;;;;;;;;;;;;17.60;30.90;94963.75;10405838;28;1973;-57
2022/04/19 12:57:23;;;;;;;;;;;;;;;17.60;30.92;94950.66;10405172;28;1485;-56
2022/04/19 13:02:24;;;;;;;;;;;;;;;17.62;31.02;94945.94;10403592;28;1410;-58
2022/04/19 13:12:50;;;;;;;;;;;;;;;17.62;31.10;94943.31;10405450;28;1973;-57
2022/04/19 13:17:50;;;;;;;;;;;;;;;17.64;31.03;94940.44;10407542;28;1678;-58
2022/04/19 13:22:51;;;;;;;;;;;;;;;17.65;31.06;94928.88;10407380;28;1527;-57
2022/04/19 13:27:51;;;;;;;;;;;;;;;17.64;31.10;94930.72;10405101;28;1547;-58
2022/04/19 13:32:51;;;;;;;;;;;;;;;17.64;31.05;94941.19;10406484;28;1987;-57
2022/04/19 13:43:11;;;;;;;;;;;;;;;17.65;30.88;94923.63;10396374;28;1610;-56
2022/04/19 13:48:11;;;;;;;;;;;;;;;17.66;31.02;94923.34;10406224;28;1566;-56
2022/04/19 13:53:12;;;;;;;;;;;;;;;17.65;31.08;94916.56;10416547;22;1978;-44
2022/04/19 13:58:12;;;;;;;;;;;;;;;17.67;31.14;94909.22;10408504;28;1470;-40
2022/04/19 14:03:13;;;;;;;;;;;;;;;17.66;31.10;94915.50;10391226;28;1488;-39
2022/04/19 14:08:13;;;;;;;;;;;;;;;17.66;31.07;94906.88;10367987;28;1529;-40
2022/04/19 14:13:14;;;;;;;;;;;;;;;17.65;31.07;94921.81;10379009;28;2291;-40
2022/04/19 14:18:15;;;;;;;;;;;;;;;17.66;31.12;94912.13;10382789;28;1373;-42
2022/04/19 14:23:16;;;;;;;;;;;;;;;17.65;31.01;94921.81;10363300;28;1858;-39
2022/04/19 14:28:17;;;;;;;;;;;;;;;17.65;31.15;94913.94;10364669;28;1428;-39
2022/04/19 14:33:19;;;;;;;;;;;;;;;17.64;31.16;94922.84;10362452;28;1914;-39
2022/04/19 14:38:20;;;;;;;;;;;;;;;17.65;31.14;94915.78;10367450;28;1316;-39
2022/04/19 14:43:20;;;;;;;;;;;;;;;17.64;31.16;94909.00;10364357;28;1508;-43
2022/04/19 14:48:21;;;;;;;;;;;;;;;17.65;31.19;94913.94;10364358;28;1929;-39
2022/04/19 14:53:22;;;;;;;;;;;;;;;17.63;31.13;94913.44;10364315;28;1993;-40
2022/04/19 14:58:22;;;;;;;;;;;;;;;17.64;31.11;94916.84;10362372;28;1611;-40
2022/04/19 15:03:22;;;;;;;;;;;;;;;17.64;31.14;94917.59;10364212;28;1559;-40
2022/04/19 15:08:23;;;;;;;;;;;;;;;17.64;31.15;94917.59;10378183;28;1491;-40
2022/04/19 15:13:23;;;;;;;;;;;;;;;17.63;31.10;94916.06;10363902;28;1981;-40
2022/04/19 15:18:23;;;;;;;;;;;;;;;17.63;31.16;94913.44;10364862;28;1387;-39
2022/04/19 15:23:24;;;;;;;;;;;;;;;17.62;31.14;94914.47;10361307;28;1825;-40
2022/04/19 15:28:24;;;;;;;;;;;;;;;17.62;31.15;94924.19;10362852;28;1623;-39
2022/04/19 15:33:25;;;;;;;;;;;;;;;17.62;31.17;94924.19;10361996;28;1918;-39
2022/04/19 15:38:25;;;;;;;;;;;;;;;17.60;31.11;94929.69;10362128;28;1578;-40
2022/04/19 15:43:26;;;;;;;;;;;;;;;17.60;31.11;94921.84;10379107;28;1493;-40
2022/04/19 15:48:28;;;;;;;;;;;;;;;17.60;31.10;94924.47;10360587;28;1445;-43
2022/04/19 15:53:29;;;;;;;;;;;;;;;17.60;31.18;94929.69;10362350;28;1979;-40
2022/04/19 15:58:29;;;;;;;;;;;;;;;17.60;31.10;94934.94;10362605;28;1568;-40
2022/04/19 16:03:29;;;;;;;;;;;;;;;17.59;31.07;94935.22;10382671;28;1561;-45
2022/04/19 16:08:30;;;;;;;;;;;;;;;17.60;31.11;94936.78;10370747;28;1793;-40
2022/04/19 16:13:30;;;;;;;;;;;;;;;17.60;31.03;94939.38;10370994;28;1989;-40
2022/04/19 16:23:49;;;;;;;;;;;;;;;17.59;31.18;94949.13;10367470;28;1572;-39
2022/04/19 16:28:52;;;;;;;;;;;;;;;17.59;31.03;94954.34;10370554;28;1398;-39
2022/04/19 16:33:53;;;;;;;;;;;;;;;17.59;31.02;94953.56;10369740;28;1918;-40
2022/04/19 16:38:53;;;;;;;;;;;;;;;17.59;31.07;94969.28;10371035;28;1543;-39
2022/04/19 16:43:55;;;;;;;;;;;;;;;17.59;31.20;94970.06;10368436;28;1513;-39
2022/04/19 16:48:56;;;;;;;;;;;;;;;17.58;31.11;94971.13;10372469;28;1442;-41
2022/04/19 16:53:59;;;;;;;;;;;;;;;17.58;31.05;94972.94;10371360;28;1986;-40
2022/04/19 16:59:01;;;;;;;;;;;;;;;17.57;31.06;94980.06;10384772;28;1657;-39
2022/04/19 17:04:06;;;;;;;;;;;;;;;17.57;31.18;94981.88;10367077;28;1929;-39
2022/04/19 17:09:09;;;;;;;;;;;;;;;17.56;31.08;94986.34;10367094;28;1462;-42
2022/04/19 17:14:09;;;;;;;;;;;;;;;17.57;31.05;94989.75;10363974;28;1910;-40
2022/04/19 17:19:11;;;;;;;;;;;;;;;17.55;31.16;95005.75;10382271;28;1466;-40
2022/04/19 17:24:11;;;;;;;;;;;;;;;17.56;31.10;95023.03;10366892;28;1445;-38
2022/04/19 17:29:11;;;;;;;;;;;;;;;17.55;31.05;95029.31;10368254;28;1426;-40
2022/04/19 17:34:12;;;;;;;;;;;;;;;17.55;31.03;95055.53;10366239;28;1906;-39
2022/04/19 17:39:14;;;;;;;;;;;;;;;17.55;31.02;95071.25;10367204;28;1501;-41
2022/04/19 17:44:14;;;;;;;;;;;;;;;17.54;31.00;95077.53;10366363;28;1953;-44
2022/04/19 17:49:15;;;;;;;;;;;;;;;17.55;31.03;95094.03;10379952;28;1525;-40
2022/04/19 17:59:45;;;;;;;;;;;;;;;17.54;30.91;95116.06;10361916;28;1480;-39
2022/04/19 18:04:45;;;;;;;;;;;;;;;17.52;31.06;95126.81;10363195;28;1402;-40
2022/04/19 18:09:46;;;;;;;;;;;;;;;17.53;31.17;95144.13;10366013;28;1437;-39
2022/04/19 18:14:46;;;;;;;;;;;;;;;17.52;31.01;95136.50;10365374;28;1910;-40
2022/04/19 18:19:46;;;;;;;;;;;;;;;17.51;30.99;95148.84;10364068;28;1460;-40
2022/04/19 18:30:10;;;;;;;;;;;;;;;17.51;31.05;95159.31;10361483;28;1468;-39
2022/04/19 18:35:11;;;;;;;;;;;;;;;17.51;31.13;95169.81;10361525;28;1918;-42
2022/04/19 18:40:13;;;;;;;;;;;;;;;17.50;31.05;95176.06;10362914;28;1433;-42
2022/04/19 18:45:14;;;;;;;;;;;;;;;17.50;30.98;95194.41;10360864;28;1517;-42
2022/04/19 18:50:14;;;;;;;;;;;;;;;17.50;30.80;95202.28;10362691;28;1485;-40
2022/04/19 18:55:15;;;;;;;;;;;;;;;17.51;30.97;95206.50;10380167;28;1910;-44
2022/04/19 19:00:15;;;;;;;;;;;;;;;17.51;30.93;95230.06;10364345;28;1441;-39
2022/04/19 19:05:17;;;;;;;;;;;;;;;17.51;30.97;95251.03;10362852;28;1492;-43
2022/04/19 19:10:17;;;;;;;;;;;;;;;17.51;31.08;95265.97;10362026;28;1450;-40
2022/04/19 19:15:17;;;;;;;;;;;;;;;17.50;30.99;95270.41;10378656;28;1914;-42
2022/04/19 19:20:21;;;;;;;;;;;;;;;17.50;30.97;95296.63;10376247;28;1340;-39
2022/04/19 19:25:21;;;;;;;;;;;;;;;17.50;30.96;95307.09;10360586;28;2173;-38
2022/04/19 19:30:24;;;;;;;;;;;;;;;17.50;30.85;95335.91;10363171;28;1525;-41
2022/04/19 19:35:24;;;;;;;;;;;;;;;17.50;30.97;95346.41;10360076;28;1987;-40
2022/04/19 19:40:24;;;;;;;;;;;;;;;17.50;30.94;95346.41;10374080;28;1320;-39
2022/04/19 19:45:26;;;;;;;;;;;;;;;17.48;30.94;95356.34;10368418;28;1441;-40
2022/04/19 19:50:26;;;;;;;;;;;;;;;17.49;30.94;95355.31;10372371;28;1989;-39
2022/04/19 19:55:26;;;;;;;;;;;;;;;17.48;30.89;95368.63;10416321;22;1918;-74
2022/04/19 20:00:27;;;;;;;;;;;;;;;17.49;30.93;95370.22;10464646;28;1338;-75
2022/04/19 20:05:27;;;;;;;;;;;;;;;17.47;30.91;95365.25;10383394;28;1394;-75
2022/04/19 20:10:28;;;;;;;;;;;;;;;17.47;31.01;95378.34;10373940;28;1583;-73
2022/04/19 20:15:29;;;;;;;;;;;;;;;17.47;30.95;95374.94;10358686;28;1968;-76
2022/04/19 20:20:30;;;;;;;;;;;;;;;17.47;31.04;95380.97;10358671;28;1417;-76
2022/04/19 20:25:30;;;;;;;;;;;;;;;17.48;30.98;95384.38;10360497;28;1521;-74
2022/04/19 20:30:31;;;;;;;;;;;;;;;17.47;31.00;95385.44;10361170;28;1673;-75
2022/04/19 20:35:31;;;;;;;;;;;;;;;17.47;30.75;95382.81;10358449;28;1902;-74
2022/04/19 20:40:31;;;;;;;;;;;;;;;17.45;31.01;95390.16;10374077;28;1468;-75
2022/04/19 20:45:32;;;;;;;;;;;;;;;17.46;30.96;95382.00;10357469;28;1585;-76
2022/04/19 20:50:33;;;;;;;;;;;;;;;17.45;30.96;95382.28;10335593;28;1515;-75
2022/04/19 20:55:34;;;;;;;;;;;;;;;17.47;30.91;95375.75;10352141;28;1975;-76
2022/04/19 21:00:34;;;;;;;;;;;;;;;17.45;31.01;95379.66;10369248;28;1610;-75
2022/04/19 21:05:35;;;;;;;;;;;;;;;17.45;30.89;95382.28;10334486;28;1608;-74
2022/04/19 21:10:36;;;;;;;;;;;;;;;17.45;30.93;95393.56;10335593;28;1626;-75
2022/04/19 21:15:36;;;;;;;;;;;;;;;17.45;30.93;95398.00;10367513;28;1879;-76
2022/04/19 21:20:37;;;;;;;;;;;;;;;17.44;31.01;95393.78;10334177;28;1326;-75
2022/04/19 21:25:39;;;;;;;;;;;;;;;17.42;30.93;95396.69;10350931;28;1594;-76
2022/04/19 21:30:41;;;;;;;;;;;;;;;17.45;30.87;95398.00;10348496;28;1493;-73
2022/04/19 21:35:42;;;;;;;;;;;;;;;17.45;30.85;95395.38;10366756;28;1965;-76
2022/04/19 21:40:42;;;;;;;;;;;;;;;17.44;30.93;95391.97;10369907;28;1353;-76
2022/04/19 21:45:42;;;;;;;;;;;;;;;17.44;30.95;95396.41;10368331;28;1469;-76
2022/04/19 21:50:43;;;;;;;;;;;;;;;17.43;30.96;95390.41;10337359;28;1549;-76
2022/04/19 21:55:43;;;;;;;;;;;;;;;17.42;30.91;95394.06;10370020;28;1965;-76
2022/04/19 22:00:52;;;;;;;;;;;;;;;17.43;30.88;95403.50;10335941;28;1449;-75
2022/04/19 22:05:54;;;;;;;;;;;;;;;17.42;30.83;95409.78;10367774;28;1420;-76
2022/04/19 22:10:54;;;;;;;;;;;;;;;17.42;30.78;95388.81;10370676;28;1652;-74
2022/04/19 22:15:55;;;;;;;;;;;;;;;17.42;30.89;95393.28;10354174;28;1906;-76
2022/04/19 22:21:01;;;;;;;;;;;;;;;17.42;30.87;95390.66;10338641;28;1557;-76
2022/04/19 22:26:01;;;;;;;;;;;;;;;17.42;30.73;95388.03;10355055;28;1494;-76
2022/04/19 22:31:02;;;;;;;;;;;;;;;17.41;30.79;95383.84;10349240;28;1507;-75
2022/04/19 22:36:04;;;;;;;;;;;;;;;17.40;30.83;95390.91;10367423;28;1914;-77
2022/04/19 22:41:05;;;;;;;;;;;;;;;17.42;30.89;95388.03;10362296;28;1410;-75
2022/04/19 22:46:06;;;;;;;;;;;;;;;17.41;30.90;95395.13;10347745;28;1545;-74
2022/04/19 22:51:06;;;;;;;;;;;;;;;17.38;30.75;95385.16;10347437;28;1645;-74
2022/04/19 22:56:07;;;;;;;;;;;;;;;17.41;30.76;95387.28;10349262;28;1954;-74
2022/04/19 23:01:07;;;;;;;;;;;;;;;17.40;30.77;95377.03;10348620;28;1489;-76
2022/04/19 23:06:08;;;;;;;;;;;;;;;17.39;30.79;95373.66;10350654;28;1376;-76
2022/04/19 23:11:09;;;;;;;;;;;;;;;17.40;30.68;95372.59;10365388;28;1499;-76
2022/04/19 23:16:10;;;;;;;;;;;;;;;17.41;30.80;95374.16;10348601;28;1989;-76
2022/04/19 23:21:11;;;;;;;;;;;;;;;17.39;30.74;95367.63;10349955;28;1488;-75
2022/04/19 23:31:31;;;;;;;;;;;;;;;17.39;30.82;95355.31;10355726;28;1405;-75
2022/04/19 23:36:32;;;;;;;;;;;;;;;17.37;30.75;95346.91;10339818;28;1902;-75
2022/04/19 23:41:33;;;;;;;;;;;;;;;17.38;30.78;95339.81;10366815;28;1444;-75
2022/04/19 23:46:34;;;;;;;;;;;;;;;17.38;30.79;95343.25;10368465;28;1411;-76
2022/04/19 23:51:36;;;;;;;;;;;;;;;17.37;30.71;95343.50;10349218;28;1516;-77
2022/04/19 23:56:36;;;;;;;;;;;;;;;17.38;30.62;95345.06;10348718;28;2195;-75
